sensor_id;sensor_type;location;lat;lon;timestamp;temperature;humidity
5938;DHT22;2994;51.220;4.412;2023-02-12T00:00:02;11.81;63.78
5938;DHT22;2994;51.220;4.412;2023-02-12T00:02:28;11.82;63.41
5938;DHT22;2994;51.220;4.412;2023-02-12T00:04:53;11.81;63.47
5938;DHT22;2994;51.220;4.412;2023-02-12T00:07:19;11.81;63.79
5938;DHT22;2994;51.220;4.412;2023-02-12T00:09:45;11.78;64.42
5938;DHT22;2994;51.220;4.412;2023-02-12T00:12:10;11.79;64.14
5938;DHT22;2994;51.220;4.412;2023-02-12T00:14:36;11.79;64.41
5938;DHT22;2994;51.220;4.412;2023-02-12T00:17:02;11.81;63.18
5938;DHT22;2994;51.220;4.412;2023-02-12T00:19:28;11.79;63.64
5938;DHT22;2994;51.220;4.412;2023-02-12T00:21:53;11.81;63.97
5938;DHT22;2994;51.220;4.412;2023-02-12T00:24:19;11.79;63.20
5938;DHT22;2994;51.220;4.412;2023-02-12T00:26:44;11.78;63.29
5938;DHT22;2994;51.220;4.412;2023-02-12T00:29:10;11.78;62.90
5938;DHT22;2994;51.220;4.412;2023-02-12T00:31:35;11.81;63.61
5938;DHT22;2994;51.220;4.412;2023-02-12T00:34:01;11.78;63.40
5938;DHT22;2994;51.220;4.412;2023-02-12T00:36:28;11.78;63.06
5938;DHT22;2994;51.220;4.412;2023-02-12T00:38:55;11.78;62.88
5938;DHT22;2994;51.220;4.412;2023-02-12T00:41:21;11.78;62.76
5938;DHT22;2994;51.220;4.412;2023-02-12T00:43:47;11.77;62.92
5938;DHT22;2994;51.220;4.412;2023-02-12T00:46:13;11.77;62.75
5938;DHT22;2994;51.220;4.412;2023-02-12T00:48:39;11.77;62.52
5938;DHT22;2994;51.220;4.412;2023-02-12T00:51:05;11.79;63.04
5938;DHT22;2994;51.220;4.412;2023-02-12T00:53:31;11.77;63.27
5938;DHT22;2994;51.220;4.412;2023-02-12T00:55:57;11.77;63.68
5938;DHT22;2994;51.220;4.412;2023-02-12T00:58:23;11.78;62.77
5938;DHT22;2994;51.220;4.412;2023-02-12T01:00:48;11.79;63.34
5938;DHT22;2994;51.220;4.412;2023-02-12T01:03:14;11.78;63.07
5938;DHT22;2994;51.220;4.412;2023-02-12T01:05:40;11.78;63.46
5938;DHT22;2994;51.220;4.412;2023-02-12T01:08:06;11.79;63.66
5938;DHT22;2994;51.220;4.412;2023-02-12T01:10:31;11.77;63.69
5938;DHT22;2994;51.220;4.412;2023-02-12T01:12:57;11.78;63.83
5938;DHT22;2994;51.220;4.412;2023-02-12T01:15:23;11.77;63.50
5938;DHT22;2994;51.220;4.412;2023-02-12T01:17:51;11.75;63.61
5938;DHT22;2994;51.220;4.412;2023-02-12T01:20:19;11.73;63.67
5938;DHT22;2994;51.220;4.412;2023-02-12T01:22:46;11.74;63.98
5938;DHT22;2994;51.220;4.412;2023-02-12T01:25:12;11.73;63.79
5938;DHT22;2994;51.220;4.412;2023-02-12T01:27:38;11.75;63.85
5938;DHT22;2994;51.220;4.412;2023-02-12T01:30:07;11.73;63.76
5938;DHT22;2994;51.220;4.412;2023-02-12T01:32:33;11.73;63.70
5938;DHT22;2994;51.220;4.412;2023-02-12T01:34:59;11.74;63.93
5938;DHT22;2994;51.220;4.412;2023-02-12T01:37:25;11.73;63.82
5938;DHT22;2994;51.220;4.412;2023-02-12T01:39:50;11.75;63.47
5938;DHT22;2994;51.220;4.412;2023-02-12T01:42:16;11.75;63.36
5938;DHT22;2994;51.220;4.412;2023-02-12T01:47:46;11.75;63.51
5938;DHT22;2994;51.220;4.412;2023-02-12T01:50:18;11.75;63.63
5938;DHT22;2994;51.220;4.412;2023-02-12T01:52:49;11.75;63.42
5938;DHT22;2994;51.220;4.412;2023-02-12T01:55:16;11.75;62.43
5938;DHT22;2994;51.220;4.412;2023-02-12T01:57:44;11.76;61.21
5938;DHT22;2994;51.220;4.412;2023-02-12T02:00:17;11.69;60.28
5938;DHT22;2994;51.220;4.412;2023-02-12T02:02:46;11.74;60.86
5938;DHT22;2994;51.220;4.412;2023-02-12T02:05:20;11.75;61.08
5938;DHT22;2994;51.220;4.412;2023-02-12T02:07:47;11.75;61.64
5938;DHT22;2994;51.220;4.412;2023-02-12T02:10:13;11.76;60.76
5938;DHT22;2994;51.220;4.412;2023-02-12T02:12:38;11.76;60.13
5938;DHT22;2994;51.220;4.412;2023-02-12T02:15:25;11.76;59.64
5938;DHT22;2994;51.220;4.412;2023-02-12T02:26:49;11.77;60.87
5938;DHT22;2994;51.220;4.412;2023-02-12T02:32:05;11.75;61.90
5938;DHT22;2994;51.220;4.412;2023-02-12T02:42:40;11.60;61.11
5938;DHT22;2994;51.220;4.412;2023-02-12T02:50:55;11.57;60.76
5938;DHT22;2994;51.220;4.412;2023-02-12T02:53:29;11.61;61.50
5938;DHT22;2994;51.220;4.412;2023-02-12T02:55:58;11.60;61.08
5938;DHT22;2994;51.220;4.412;2023-02-12T02:58:35;11.59;61.57
5938;DHT22;2994;51.220;4.412;2023-02-12T03:01:15;11.62;62.10
5938;DHT22;2994;51.220;4.412;2023-02-12T03:03:51;11.61;60.14
5938;DHT22;2994;51.220;4.412;2023-02-12T03:06:47;11.64;61.25
5938;DHT22;2994;51.220;4.412;2023-02-12T03:09:21;11.62;59.42
5938;DHT22;2994;51.220;4.412;2023-02-12T03:11:49;11.67;59.80
5938;DHT22;2994;51.220;4.412;2023-02-12T03:14:24;11.63;60.22
5938;DHT22;2994;51.220;4.412;2023-02-12T03:17:07;11.66;59.67
5938;DHT22;2994;51.220;4.412;2023-02-12T03:19:38;11.67;60.04
5938;DHT22;2994;51.220;4.412;2023-02-12T03:22:11;11.64;60.24
5938;DHT22;2994;51.220;4.412;2023-02-12T03:24:44;11.63;60.31
5938;DHT22;2994;51.220;4.412;2023-02-12T03:29:36;11.58;58.93
5938;DHT22;2994;51.220;4.412;2023-02-12T03:32:25;11.61;59.42
5938;DHT22;2994;51.220;4.412;2023-02-12T03:40:28;11.66;60.41
5938;DHT22;2994;51.220;4.412;2023-02-12T03:43:02;11.67;60.25
5938;DHT22;2994;51.220;4.412;2023-02-12T03:45:45;11.66;59.06
5938;DHT22;2994;51.220;4.412;2023-02-12T03:48:29;11.64;58.13
5938;DHT22;2994;51.220;4.412;2023-02-12T03:51:21;11.64;58.41
5938;DHT22;2994;51.220;4.412;2023-02-12T03:53:48;11.64;58.16
5938;DHT22;2994;51.220;4.412;2023-02-12T03:56:41;11.60;59.08
5938;DHT22;2994;51.220;4.412;2023-02-12T03:59:07;11.62;59.32
5938;DHT22;2994;51.220;4.412;2023-02-12T04:01:34;11.52;59.03
5938;DHT22;2994;51.220;4.412;2023-02-12T04:04:03;11.55;59.73
5938;DHT22;2994;51.220;4.412;2023-02-12T04:06:29;11.57;59.61
5938;DHT22;2994;51.220;4.412;2023-02-12T04:08:58;11.58;59.57
5938;DHT22;2994;51.220;4.412;2023-02-12T04:14:39;11.61;60.09
5938;DHT22;2994;51.220;4.412;2023-02-12T04:17:29;11.61;60.30
5938;DHT22;2994;51.220;4.412;2023-02-12T04:23:01;11.60;60.96
5938;DHT22;2994;51.220;4.412;2023-02-12T04:30:37;11.60;59.59
5938;DHT22;2994;51.220;4.412;2023-02-12T04:33:09;11.61;60.18
5938;DHT22;2994;51.220;4.412;2023-02-12T04:35:56;11.61;60.68
5938;DHT22;2994;51.220;4.412;2023-02-12T04:38:28;11.63;59.90
5938;DHT22;2994;51.220;4.412;2023-02-12T04:40:55;11.62;60.19
5938;DHT22;2994;51.220;4.412;2023-02-12T04:43:29;11.62;60.67
5938;DHT22;2994;51.220;4.412;2023-02-12T04:45:55;11.62;60.66
5938;DHT22;2994;51.220;4.412;2023-02-12T04:48:20;11.62;60.27
5938;DHT22;2994;51.220;4.412;2023-02-12T04:50:46;11.56;58.76
5938;DHT22;2994;51.220;4.412;2023-02-12T04:53:12;11.56;58.88
5938;DHT22;2994;51.220;4.412;2023-02-12T04:55:37;11.56;59.05
5938;DHT22;2994;51.220;4.412;2023-02-12T04:58:03;11.57;59.70
5938;DHT22;2994;51.220;4.412;2023-02-12T05:00:29;11.56;59.52
5938;DHT22;2994;51.220;4.412;2023-02-12T05:02:54;11.58;60.35
5938;DHT22;2994;51.220;4.412;2023-02-12T05:05:20;11.57;59.31
5938;DHT22;2994;51.220;4.412;2023-02-12T05:07:46;11.54;59.11
5938;DHT22;2994;51.220;4.412;2023-02-12T05:10:11;11.46;58.13
5938;DHT22;2994;51.220;4.412;2023-02-12T05:12:37;11.46;58.75
5938;DHT22;2994;51.220;4.412;2023-02-12T05:15:02;11.48;59.19
5938;DHT22;2994;51.220;4.412;2023-02-12T05:17:28;11.47;59.03
5938;DHT22;2994;51.220;4.412;2023-02-12T05:19:53;11.47;59.63
5938;DHT22;2994;51.220;4.412;2023-02-12T05:22:18;11.48;58.99
5938;DHT22;2994;51.220;4.412;2023-02-12T05:24:44;11.39;58.74
5938;DHT22;2994;51.220;4.412;2023-02-12T05:27:09;11.39;58.47
5938;DHT22;2994;51.220;4.412;2023-02-12T05:29:36;11.41;58.80
5938;DHT22;2994;51.220;4.412;2023-02-12T05:32:01;11.40;59.69
5938;DHT22;2994;51.220;4.412;2023-02-12T05:34:27;11.42;59.83
5938;DHT22;2994;51.220;4.412;2023-02-12T05:36:52;11.42;58.27
5938;DHT22;2994;51.220;4.412;2023-02-12T05:39:18;11.33;58.22
5938;DHT22;2994;51.220;4.412;2023-02-12T05:41:43;11.32;58.33
5938;DHT22;2994;51.220;4.412;2023-02-12T05:44:09;11.29;57.99
5938;DHT22;2994;51.220;4.412;2023-02-12T05:46:36;11.30;58.80
5938;DHT22;2994;51.220;4.412;2023-02-12T05:49:02;11.28;58.01
5938;DHT22;2994;51.220;4.412;2023-02-12T05:51:28;11.26;58.54
5938;DHT22;2994;51.220;4.412;2023-02-12T05:53:58;11.26;58.84
5938;DHT22;2994;51.220;4.412;2023-02-12T05:56:27;11.26;59.07
5938;DHT22;2994;51.220;4.412;2023-02-12T05:58:59;11.28;59.33
5938;DHT22;2994;51.220;4.412;2023-02-12T06:01:31;11.31;59.35
5938;DHT22;2994;51.220;4.412;2023-02-12T06:03:58;11.30;59.28
5938;DHT22;2994;51.220;4.412;2023-02-12T06:06:25;11.32;59.71
5938;DHT22;2994;51.220;4.412;2023-02-12T06:08:51;11.34;58.60
5938;DHT22;2994;51.220;4.412;2023-02-12T06:11:16;11.32;58.52
5938;DHT22;2994;51.220;4.412;2023-02-12T06:13:43;11.28;58.15
5938;DHT22;2994;51.220;4.412;2023-02-12T06:16:23;11.27;58.13
5938;DHT22;2994;51.220;4.412;2023-02-12T06:18:49;11.24;57.28
5938;DHT22;2994;51.220;4.412;2023-02-12T06:21:18;11.14;57.76
5938;DHT22;2994;51.220;4.412;2023-02-12T06:23:44;11.07;57.81
5938;DHT22;2994;51.220;4.412;2023-02-12T06:26:09;11.09;58.32
5938;DHT22;2994;51.220;4.412;2023-02-12T06:28:35;11.09;58.24
5938;DHT22;2994;51.220;4.412;2023-02-12T06:31:00;11.14;59.11
5938;DHT22;2994;51.220;4.412;2023-02-12T06:33:26;11.16;59.48
5938;DHT22;2994;51.220;4.412;2023-02-12T06:35:51;11.19;59.25
5938;DHT22;2994;51.220;4.412;2023-02-12T06:38:17;11.24;59.74
5938;DHT22;2994;51.220;4.412;2023-02-12T06:40:42;11.26;59.86
5938;DHT22;2994;51.220;4.412;2023-02-12T06:43:08;11.27;58.85
5938;DHT22;2994;51.220;4.412;2023-02-12T06:45:34;11.29;59.09
5938;DHT22;2994;51.220;4.412;2023-02-12T06:47:59;11.30;59.34
5938;DHT22;2994;51.220;4.412;2023-02-12T06:50:25;11.26;58.48
5938;DHT22;2994;51.220;4.412;2023-02-12T06:52:51;11.29;59.33
5938;DHT22;2994;51.220;4.412;2023-02-12T06:55:16;11.30;58.62
5938;DHT22;2994;51.220;4.412;2023-02-12T06:57:42;11.29;59.12
5938;DHT22;2994;51.220;4.412;2023-02-12T07:00:08;11.30;58.49
5938;DHT22;2994;51.220;4.412;2023-02-12T07:02:33;11.32;59.19
5938;DHT22;2994;51.220;4.412;2023-02-12T07:04:59;11.33;59.32
5938;DHT22;2994;51.220;4.412;2023-02-12T07:07:24;11.32;58.45
5938;DHT22;2994;51.220;4.412;2023-02-12T07:09:50;11.28;57.58
5938;DHT22;2994;51.220;4.412;2023-02-12T07:12:15;11.23;57.28
5938;DHT22;2994;51.220;4.412;2023-02-12T07:14:41;11.23;58.05
5938;DHT22;2994;51.220;4.412;2023-02-12T07:17:06;11.25;57.87
5938;DHT22;2994;51.220;4.412;2023-02-12T07:19:34;11.24;58.13
5938;DHT22;2994;51.220;4.412;2023-02-12T07:21:59;11.25;58.45
5938;DHT22;2994;51.220;4.412;2023-02-12T07:24:25;11.28;58.85
5938;DHT22;2994;51.220;4.412;2023-02-12T07:26:50;11.30;58.88
5938;DHT22;2994;51.220;4.412;2023-02-12T07:29:15;11.33;58.74
5938;DHT22;2994;51.220;4.412;2023-02-12T07:31:41;11.32;59.33
5938;DHT22;2994;51.220;4.412;2023-02-12T07:34:08;11.36;59.53
5938;DHT22;2994;51.220;4.412;2023-02-12T07:36:34;11.38;59.20
5938;DHT22;2994;51.220;4.412;2023-02-12T07:39:00;11.41;59.70
5938;DHT22;2994;51.220;4.412;2023-02-12T07:41:28;11.40;59.32
5938;DHT22;2994;51.220;4.412;2023-02-12T07:43:56;11.41;58.25
5938;DHT22;2994;51.220;4.412;2023-02-12T07:46:25;11.41;58.82
5938;DHT22;2994;51.220;4.412;2023-02-12T07:48:55;11.42;59.57
5938;DHT22;2994;51.220;4.412;2023-02-12T07:51:21;11.39;58.81
5938;DHT22;2994;51.220;4.412;2023-02-12T07:53:48;11.37;57.11
5938;DHT22;2994;51.220;4.412;2023-02-12T07:56:19;11.26;56.87
5938;DHT22;2994;51.220;4.412;2023-02-12T07:58:46;11.27;57.02
5938;DHT22;2994;51.220;4.412;2023-02-12T08:01:38;11.28;57.06
5938;DHT22;2994;51.220;4.412;2023-02-12T08:04:05;11.31;58.26
5938;DHT22;2994;51.220;4.412;2023-02-12T08:06:34;11.33;59.00
5938;DHT22;2994;51.220;4.412;2023-02-12T08:09:01;11.39;59.30
5938;DHT22;2994;51.220;4.412;2023-02-12T08:11:27;11.42;58.90
5938;DHT22;2994;51.220;4.412;2023-02-12T08:13:54;11.44;59.12
5938;DHT22;2994;51.220;4.412;2023-02-12T08:16:22;11.46;59.52
5938;DHT22;2994;51.220;4.412;2023-02-12T08:18:48;11.47;59.11
5938;DHT22;2994;51.220;4.412;2023-02-12T08:21:17;11.48;58.74
5938;DHT22;2994;51.220;4.412;2023-02-12T08:23:43;11.52;59.08
5938;DHT22;2994;51.220;4.412;2023-02-12T08:26:19;11.53;59.05
5938;DHT22;2994;51.220;4.412;2023-02-12T08:28:47;11.54;58.90
5938;DHT22;2994;51.220;4.412;2023-02-12T08:31:16;11.58;59.03
5938;DHT22;2994;51.220;4.412;2023-02-12T08:33:43;11.57;58.78
5938;DHT22;2994;51.220;4.412;2023-02-12T08:36:11;11.58;58.84
5938;DHT22;2994;51.220;4.412;2023-02-12T08:38:39;11.58;58.64
5938;DHT22;2994;51.220;4.412;2023-02-12T08:41:08;11.56;58.48
5938;DHT22;2994;51.220;4.412;2023-02-12T08:43:33;11.60;58.31
5938;DHT22;2994;51.220;4.412;2023-02-12T08:46:26;11.62;58.05
5938;DHT22;2994;51.220;4.412;2023-02-12T08:48:53;11.67;58.13
5938;DHT22;2994;51.220;4.412;2023-02-12T08:51:24;11.68;57.67
5938;DHT22;2994;51.220;4.412;2023-02-12T08:54:01;11.69;57.71
5938;DHT22;2994;51.220;4.412;2023-02-12T08:56:28;11.71;57.92
5938;DHT22;2994;51.220;4.412;2023-02-12T08:58:57;11.68;57.27
5938;DHT22;2994;51.220;4.412;2023-02-12T09:01:25;11.62;57.00
5938;DHT22;2994;51.220;4.412;2023-02-12T09:03:52;11.66;56.91
5938;DHT22;2994;51.220;4.412;2023-02-12T09:06:19;11.70;56.96
5938;DHT22;2994;51.220;4.412;2023-02-12T09:08:45;11.70;56.10
5938;DHT22;2994;51.220;4.412;2023-02-12T09:11:16;11.71;56.36
5938;DHT22;2994;51.220;4.412;2023-02-12T09:13:44;11.71;56.24
5938;DHT22;2994;51.220;4.412;2023-02-12T09:16:10;11.74;56.97
5938;DHT22;2994;51.220;4.412;2023-02-12T09:18:36;11.74;57.26
5938;DHT22;2994;51.220;4.412;2023-02-12T09:21:10;11.75;57.30
5938;DHT22;2994;51.220;4.412;2023-02-12T09:23:36;11.76;57.39
5938;DHT22;2994;51.220;4.412;2023-02-12T09:26:07;11.78;56.67
5938;DHT22;2994;51.220;4.412;2023-02-12T09:28:33;11.75;55.74
5938;DHT22;2994;51.220;4.412;2023-02-12T09:31:04;11.78;55.56
5938;DHT22;2994;51.220;4.412;2023-02-12T09:33:29;11.82;56.20
5938;DHT22;2994;51.220;4.412;2023-02-12T09:35:59;11.83;56.67
5938;DHT22;2994;51.220;4.412;2023-02-12T09:38:24;11.84;56.29
5938;DHT22;2994;51.220;4.412;2023-02-12T09:46:11;11.85;55.69
5938;DHT22;2994;51.220;4.412;2023-02-12T09:48:54;11.87;55.91
5938;DHT22;2994;51.220;4.412;2023-02-12T09:51:25;11.88;55.22
5938;DHT22;2994;51.220;4.412;2023-02-12T09:54:02;11.89;55.94
5938;DHT22;2994;51.220;4.412;2023-02-12T09:56:28;11.92;55.99
5938;DHT22;2994;51.220;4.412;2023-02-12T09:58:58;11.92;55.55
5938;DHT22;2994;51.220;4.412;2023-02-12T10:01:28;11.91;55.87
5938;DHT22;2994;51.220;4.412;2023-02-12T10:03:54;11.90;55.87
5938;DHT22;2994;51.220;4.412;2023-02-12T10:06:28;11.91;55.78
5938;DHT22;2994;51.220;4.412;2023-02-12T10:14:37;11.93;55.17
5938;DHT22;2994;51.220;4.412;2023-02-12T10:17:41;11.84;53.31
5938;DHT22;2994;51.220;4.412;2023-02-12T10:28:17;11.70;54.96
5938;DHT22;2994;51.220;4.412;2023-02-12T10:30:55;11.75;54.70
5938;DHT22;2994;51.220;4.412;2023-02-12T10:33:35;11.78;55.16
5938;DHT22;2994;51.220;4.412;2023-02-12T10:38:36;11.86;55.49
5938;DHT22;2994;51.220;4.412;2023-02-12T10:41:03;11.89;54.85
5938;DHT22;2994;51.220;4.412;2023-02-12T10:43:29;11.93;53.91
5938;DHT22;2994;51.220;4.412;2023-02-12T10:45:55;11.76;53.55
5938;DHT22;2994;51.220;4.412;2023-02-12T10:48:24;11.76;53.68
5938;DHT22;2994;51.220;4.412;2023-02-12T10:53:45;11.79;55.14
5938;DHT22;2994;51.220;4.412;2023-02-12T10:56:14;11.86;54.12
5938;DHT22;2994;51.220;4.412;2023-02-12T10:58:55;11.86;55.02
5938;DHT22;2994;51.220;4.412;2023-02-12T11:01:34;11.85;54.24
5938;DHT22;2994;51.220;4.412;2023-02-12T11:04:22;11.79;53.37
5938;DHT22;2994;51.220;4.412;2023-02-12T11:07:07;11.78;53.79
5938;DHT22;2994;51.220;4.412;2023-02-12T11:09:39;11.82;54.78
5938;DHT22;2994;51.220;4.412;2023-02-12T11:12:33;11.86;55.73
5938;DHT22;2994;51.220;4.412;2023-02-12T11:15:19;11.93;54.81
5938;DHT22;2994;51.220;4.412;2023-02-12T11:18:07;11.96;54.83
5938;DHT22;2994;51.220;4.412;2023-02-12T11:20:47;11.93;54.83
5938;DHT22;2994;51.220;4.412;2023-02-12T11:23:29;12.01;55.22
5938;DHT22;2994;51.220;4.412;2023-02-12T11:28:34;12.06;55.42
5938;DHT22;2994;51.220;4.412;2023-02-12T11:31:02;12.05;55.16
5938;DHT22;2994;51.220;4.412;2023-02-12T11:33:34;12.10;55.16
5938;DHT22;2994;51.220;4.412;2023-02-12T11:36:21;12.12;55.32
5938;DHT22;2994;51.220;4.412;2023-02-12T11:38:54;12.13;55.57
5938;DHT22;2994;51.220;4.412;2023-02-12T11:41:35;12.14;56.03
5938;DHT22;2994;51.220;4.412;2023-02-12T11:46:34;12.18;56.09
5938;DHT22;2994;51.220;4.412;2023-02-12T11:49:00;12.21;55.16
5938;DHT22;2994;51.220;4.412;2023-02-12T11:51:30;12.14;54.68
5938;DHT22;2994;51.220;4.412;2023-02-12T11:54:00;12.18;54.84
5938;DHT22;2994;51.220;4.412;2023-02-12T11:56:40;12.20;54.74
5938;DHT22;2994;51.220;4.412;2023-02-12T12:02:30;12.20;54.61
5938;DHT22;2994;51.220;4.412;2023-02-12T12:05:07;12.16;53.90
5938;DHT22;2994;51.220;4.412;2023-02-12T12:07:35;12.10;53.40
5938;DHT22;2994;51.220;4.412;2023-02-12T12:10:09;12.06;53.83
5938;DHT22;2994;51.220;4.412;2023-02-12T12:12:50;12.12;54.83
5938;DHT22;2994;51.220;4.412;2023-02-12T12:15:25;12.08;53.84
5938;DHT22;2994;51.220;4.412;2023-02-12T12:18:43;11.92;53.81
5938;DHT22;2994;51.220;4.412;2023-02-12T12:24:28;11.86;53.60
5938;DHT22;2994;51.220;4.412;2023-02-12T12:27:24;11.86;54.80
5938;DHT22;2994;51.220;4.412;2023-02-12T12:30:19;11.96;54.37
5938;DHT22;2994;51.220;4.412;2023-02-12T12:32:49;11.98;54.74
5938;DHT22;2994;51.220;4.412;2023-02-12T12:35:18;12.04;54.36
5938;DHT22;2994;51.220;4.412;2023-02-12T12:38:06;12.07;55.45
5938;DHT22;2994;51.220;4.412;2023-02-12T12:41:17;12.08;53.65
5938;DHT22;2994;51.220;4.412;2023-02-12T12:46:53;12.00;53.75
5938;DHT22;2994;51.220;4.412;2023-02-12T12:55:14;11.96;54.75
5938;DHT22;2994;51.220;4.412;2023-02-12T13:00:34;12.08;55.54
5938;DHT22;2994;51.220;4.412;2023-02-12T13:09:10;12.11;54.69
5938;DHT22;2994;51.220;4.412;2023-02-12T13:12:03;12.10;54.57
5938;DHT22;2994;51.220;4.412;2023-02-12T13:23:03;12.27;54.20
5938;DHT22;2994;51.220;4.412;2023-02-12T13:25:46;12.27;54.30
5938;DHT22;2994;51.220;4.412;2023-02-12T13:28:16;12.28;54.46
5938;DHT22;2994;51.220;4.412;2023-02-12T13:30:46;12.30;54.59
5938;DHT22;2994;51.220;4.412;2023-02-12T13:33:46;12.33;54.31
5938;DHT22;2994;51.220;4.412;2023-02-12T13:36:05;12.38;55.40
5938;DHT22;2994;51.220;4.412;2023-02-12T13:38:36;12.42;54.39
5938;DHT22;2994;51.220;4.412;2023-02-12T13:41:05;12.41;55.14
5938;DHT22;2994;51.220;4.412;2023-02-12T13:46:36;12.47;54.96
5938;DHT22;2994;51.220;4.412;2023-02-12T13:52:28;12.52;55.75
5938;DHT22;2994;51.220;4.412;2023-02-12T13:54:55;12.52;55.14
5938;DHT22;2994;51.220;4.412;2023-02-12T13:57:21;12.56;54.87
5938;DHT22;2994;51.220;4.412;2023-02-12T14:05:02;12.62;55.31
5938;DHT22;2994;51.220;4.412;2023-02-12T14:07:50;12.60;55.85
5938;DHT22;2994;51.220;4.412;2023-02-12T14:10:32;12.62;55.21
5938;DHT22;2994;51.220;4.412;2023-02-12T14:13:13;12.58;55.36
5938;DHT22;2994;51.220;4.412;2023-02-12T14:15:42;12.59;55.20
5938;DHT22;2994;51.220;4.412;2023-02-12T14:23:38;12.53;54.96
5938;DHT22;2994;51.220;4.412;2023-02-12T14:26:06;12.57;55.45
5938;DHT22;2994;51.220;4.412;2023-02-12T14:28:53;12.57;55.10
5938;DHT22;2994;51.220;4.412;2023-02-12T14:33:49;12.57;55.09
5938;DHT22;2994;51.220;4.412;2023-02-12T14:52:05;12.61;55.21
5938;DHT22;2994;51.220;4.412;2023-02-12T14:54:40;12.57;55.42
5938;DHT22;2994;51.220;4.412;2023-02-12T14:59:48;12.56;55.53
5938;DHT22;2994;51.220;4.412;2023-02-12T15:02:36;12.53;55.55
5938;DHT22;2994;51.220;4.412;2023-02-12T15:05:10;12.52;55.49
5938;DHT22;2994;51.220;4.412;2023-02-12T15:07:46;12.57;55.96
5938;DHT22;2994;51.220;4.412;2023-02-12T15:10:21;12.58;55.34
5938;DHT22;2994;51.220;4.412;2023-02-12T15:15:34;12.55;55.46
5938;DHT22;2994;51.220;4.412;2023-02-12T15:18:13;12.53;56.32
5938;DHT22;2994;51.220;4.412;2023-02-12T15:20:50;12.55;56.64
5938;DHT22;2994;51.220;4.412;2023-02-12T15:23:43;12.55;56.42
5938;DHT22;2994;51.220;4.412;2023-02-12T15:26:14;12.57;56.96
5938;DHT22;2994;51.220;4.412;2023-02-12T15:28:41;12.58;55.98
5938;DHT22;2994;51.220;4.412;2023-02-12T15:31:08;12.55;56.16
5938;DHT22;2994;51.220;4.412;2023-02-12T15:33:39;12.53;56.13
5938;DHT22;2994;51.220;4.412;2023-02-12T15:36:08;12.55;56.82
5938;DHT22;2994;51.220;4.412;2023-02-12T15:38:39;12.56;57.02
5938;DHT22;2994;51.220;4.412;2023-02-12T15:41:08;12.57;57.10
5938;DHT22;2994;51.220;4.412;2023-02-12T15:43:47;12.56;56.75
5938;DHT22;2994;51.220;4.412;2023-02-12T15:46:15;12.56;57.12
5938;DHT22;2994;51.220;4.412;2023-02-12T15:48:41;12.56;57.27
5938;DHT22;2994;51.220;4.412;2023-02-12T15:51:28;12.56;57.03
5938;DHT22;2994;51.220;4.412;2023-02-12T15:53:55;12.51;57.29
5938;DHT22;2994;51.220;4.412;2023-02-12T15:56:23;12.52;56.74
5938;DHT22;2994;51.220;4.412;2023-02-12T15:58:53;12.53;56.67
5938;DHT22;2994;51.220;4.412;2023-02-12T16:01:22;12.60;56.81
5938;DHT22;2994;51.220;4.412;2023-02-12T16:03:50;12.62;56.42
5938;DHT22;2994;51.220;4.412;2023-02-12T16:06:17;12.62;56.56
5938;DHT22;2994;51.220;4.412;2023-02-12T16:08:46;12.60;56.82
5938;DHT22;2994;51.220;4.412;2023-02-12T16:11:16;12.60;56.23
5938;DHT22;2994;51.220;4.412;2023-02-12T16:13:46;12.56;56.08
5938;DHT22;2994;51.220;4.412;2023-02-12T16:16:15;12.58;56.77
5938;DHT22;2994;51.220;4.412;2023-02-12T16:18:42;12.59;57.00
5938;DHT22;2994;51.220;4.412;2023-02-12T16:21:19;12.58;56.90
5938;DHT22;2994;51.220;4.412;2023-02-12T16:23:48;12.57;56.69
5938;DHT22;2994;51.220;4.412;2023-02-12T16:26:21;12.56;56.80
5938;DHT22;2994;51.220;4.412;2023-02-12T16:28:49;12.56;56.81
5938;DHT22;2994;51.220;4.412;2023-02-12T16:31:16;12.52;56.36
5938;DHT22;2994;51.220;4.412;2023-02-12T16:33:48;12.49;57.26
5938;DHT22;2994;51.220;4.412;2023-02-12T16:38:48;12.48;57.76
5938;DHT22;2994;51.220;4.412;2023-02-12T16:43:42;12.43;56.97
5938;DHT22;2994;51.220;4.412;2023-02-12T16:46:08;12.44;58.00
5938;DHT22;2994;51.220;4.412;2023-02-12T16:48:43;12.44;58.39
5938;DHT22;2994;51.220;4.412;2023-02-12T16:53:45;12.41;57.52
5938;DHT22;2994;51.220;4.412;2023-02-12T16:56:17;12.40;57.64
5938;DHT22;2994;51.220;4.412;2023-02-12T16:58:52;12.40;58.21
5938;DHT22;2994;51.220;4.412;2023-02-12T17:01:26;12.38;57.55
5938;DHT22;2994;51.220;4.412;2023-02-12T17:03:52;12.38;57.48
5938;DHT22;2994;51.220;4.412;2023-02-12T17:06:21;12.34;57.86
5938;DHT22;2994;51.220;4.412;2023-02-12T17:08:47;12.35;58.51
5938;DHT22;2994;51.220;4.412;2023-02-12T17:11:13;12.33;58.03
5938;DHT22;2994;51.220;4.412;2023-02-12T17:13:42;12.34;58.24
5938;DHT22;2994;51.220;4.412;2023-02-12T17:16:08;12.36;58.66
5938;DHT22;2994;51.220;4.412;2023-02-12T17:18:36;12.25;58.53
5938;DHT22;2994;51.220;4.412;2023-02-12T17:21:07;12.25;58.89
5938;DHT22;2994;51.220;4.412;2023-02-12T17:23:33;12.29;59.19
5938;DHT22;2994;51.220;4.412;2023-02-12T17:25:59;12.30;59.29
5938;DHT22;2994;51.220;4.412;2023-02-12T17:28:25;12.33;58.79
5938;DHT22;2994;51.220;4.412;2023-02-12T17:30:51;12.30;58.37
5938;DHT22;2994;51.220;4.412;2023-02-12T17:33:24;12.28;58.90
5938;DHT22;2994;51.220;4.412;2023-02-12T17:35:49;12.31;58.82
5938;DHT22;2994;51.220;4.412;2023-02-12T17:38:15;12.30;58.93
5938;DHT22;2994;51.220;4.412;2023-02-12T17:40:40;12.30;58.75
5938;DHT22;2994;51.220;4.412;2023-02-12T17:43:06;12.30;59.44
5938;DHT22;2994;51.220;4.412;2023-02-12T17:45:32;12.29;59.76
5938;DHT22;2994;51.220;4.412;2023-02-12T17:47:57;12.29;59.54
5938;DHT22;2994;51.220;4.412;2023-02-12T17:50:23;12.31;59.86
5938;DHT22;2994;51.220;4.412;2023-02-12T17:52:49;12.30;59.71
5938;DHT22;2994;51.220;4.412;2023-02-12T17:55:14;12.28;60.02
5938;DHT22;2994;51.220;4.412;2023-02-12T17:57:42;12.28;60.15
5938;DHT22;2994;51.220;4.412;2023-02-12T18:00:10;12.28;60.12
5938;DHT22;2994;51.220;4.412;2023-02-12T18:02:36;12.27;60.27
5938;DHT22;2994;51.220;4.412;2023-02-12T18:05:05;12.28;60.13
5938;DHT22;2994;51.220;4.412;2023-02-12T18:07:32;12.27;60.21
5938;DHT22;2994;51.220;4.412;2023-02-12T18:09:58;12.27;60.43
5938;DHT22;2994;51.220;4.412;2023-02-12T18:12:23;12.28;60.55
5938;DHT22;2994;51.220;4.412;2023-02-12T18:14:48;12.29;59.90
5938;DHT22;2994;51.220;4.412;2023-02-12T18:17:14;12.28;59.67
5938;DHT22;2994;51.220;4.412;2023-02-12T18:19:39;12.28;59.95
5938;DHT22;2994;51.220;4.412;2023-02-12T18:22:05;12.23;59.56
5938;DHT22;2994;51.220;4.412;2023-02-12T18:24:30;12.22;59.82
5938;DHT22;2994;51.220;4.412;2023-02-12T18:26:58;12.23;60.25
5938;DHT22;2994;51.220;4.412;2023-02-12T18:29:24;12.22;60.17
5938;DHT22;2994;51.220;4.412;2023-02-12T18:31:49;12.22;60.39
5938;DHT22;2994;51.220;4.412;2023-02-12T18:34:15;12.21;60.21
5938;DHT22;2994;51.220;4.412;2023-02-12T18:36:41;12.23;60.50
5938;DHT22;2994;51.220;4.412;2023-02-12T18:39:06;12.23;60.15
5938;DHT22;2994;51.220;4.412;2023-02-12T18:41:32;12.23;60.54
5938;DHT22;2994;51.220;4.412;2023-02-12T18:43:58;12.23;60.52
5938;DHT22;2994;51.220;4.412;2023-02-12T18:46:26;12.22;60.86
5938;DHT22;2994;51.220;4.412;2023-02-12T18:48:53;12.25;59.99
5938;DHT22;2994;51.220;4.412;2023-02-12T18:51:20;12.26;59.77
5938;DHT22;2994;51.220;4.412;2023-02-12T18:53:49;12.20;60.01
5938;DHT22;2994;51.220;4.412;2023-02-12T18:56:17;12.19;59.91
5938;DHT22;2994;51.220;4.412;2023-02-12T18:58:43;12.17;60.59